Time;durP1;ratioP1;P1;durP2;ratioP2;P2;SDS_P1;SDS_P2;PMS_P1;PMS_P2;Temp;Humidity;BMP_temperature;BMP_pressure;BME280_temperature;BME280_humidity;BME280_pressure;Samples;Min_cycle;Max_cycle;Signal;HPM_P1;HPM_P2
2023/12/02 00:01:47;;;;;;;17.43;13.17;;;2.60;91.30;;;;;;5076483;28;20757;-62
2023/12/02 00:04:13;;;;;;;18.27;13.03;;;2.70;91.40;;;;;;5076515;28;20468;-62
2023/12/02 00:06:40;;;;;;;17.10;13.13;;;2.70;91.60;;;;;;5076299;28;20451;-63
2023/12/02 00:09:07;;;;;;;19.93;14.07;;;2.70;91.80;;;;;;5076211;28;20440;-62
2023/12/02 00:11:34;;;;;;;23.23;15.20;;;2.60;91.90;;;;;;5076247;28;20445;-62
2023/12/02 00:14:02;;;;;;;20.73;14.90;;;2.60;91.90;;;;;;5075913;28;20491;-62
2023/12/02 00:16:29;;;;;;;20.73;15.13;;;2.70;91.80;;;;;;5075814;28;20814;-62
2023/12/02 00:18:56;;;;;;;19.53;14.63;;;2.70;92.00;;;;;;5076142;28;20480;-62
2023/12/02 00:21:23;;;;;;;19.70;13.80;;;2.70;91.70;;;;;;5075651;28;20988;-62
2023/12/02 00:23:49;;;;;;;19.57;14.57;;;2.70;91.60;;;;;;5076020;28;20493;-62
2023/12/02 00:26:16;;;;;;;22.20;15.70;;;2.70;91.70;;;;;;5075898;28;20544;-61
2023/12/02 00:28:43;;;;;;;19.80;14.30;;;2.70;92.00;;;;;;5075834;28;20459;-62
2023/12/02 00:31:11;;;;;;;20.87;15.23;;;2.70;91.90;;;;;;5075820;28;20835;-62
2023/12/02 00:33:38;;;;;;;22.00;14.93;;;2.70;91.90;;;;;;5075796;28;20488;-62
2023/12/02 00:36:05;;;;;;;18.70;14.37;;;2.70;92.10;;;;;;5075816;28;20440;-62
2023/12/02 00:38:32;;;;;;;20.20;15.33;;;2.70;91.90;;;;;;5075684;28;20887;-62
2023/12/02 00:40:59;;;;;;;20.03;15.40;;;2.70;91.70;;;;;;5075710;28;20834;-62
2023/12/02 00:43:25;;;;;;;17.80;13.27;;;2.70;91.60;;;;;;5075248;28;20823;-62
2023/12/02 00:45:51;;;;;;;21.80;15.50;;;2.70;91.70;;;;;;5075782;28;20810;-62
2023/12/02 00:48:19;;;;;;;21.43;15.43;;;2.70;91.50;;;;;;5075589;28;20444;-62
2023/12/02 00:50:46;;;;;;;21.33;14.90;;;2.70;91.60;;;;;;5075440;28;20229;-62
2023/12/02 00:53:12;;;;;;;22.30;16.53;;;2.70;91.70;;;;;;5075331;28;20947;-62
2023/12/02 00:55:39;;;;;;;20.67;15.17;;;2.70;91.70;;;;;;5075801;28;20440;-62
2023/12/02 00:58:06;;;;;;;21.67;15.40;;;2.70;91.80;;;;;;5075195;28;20445;-62
2023/12/02 01:00:32;;;;;;;20.80;16.30;;;2.70;91.90;;;;;;5074311;28;21009;-62
2023/12/02 01:02:59;;;;;;;21.50;15.13;;;2.70;92.00;;;;;;5075103;28;20463;-61
2023/12/02 01:05:27;;;;;;;20.53;14.37;;;2.70;92.00;;;;;;5075399;28;20467;-62
2023/12/02 01:07:54;;;;;;;21.50;15.23;;;2.70;92.00;;;;;;5075656;28;20440;-62
2023/12/02 01:10:20;;;;;;;20.90;14.00;;;2.70;92.00;;;;;;5074786;28;20453;-61
2023/12/02 01:12:47;;;;;;;17.10;12.43;;;2.70;92.00;;;;;;5074204;28;20476;-61
2023/12/02 01:15:14;;;;;;;21.77;15.30;;;2.70;92.10;;;;;;5075113;28;20819;-62
2023/12/02 01:17:40;;;;;;;18.10;14.10;;;2.70;92.00;;;;;;5075149;28;20445;-62
2023/12/02 01:20:09;;;;;;;23.20;15.80;;;2.80;92.00;;;;;;5075228;28;21028;-61
2023/12/02 01:22:37;;;;;;;19.60;13.70;;;2.70;91.80;;;;;;5075101;28;20502;-61
2023/12/02 01:25:04;;;;;;;23.67;13.90;;;2.70;91.60;;;;;;5075665;28;20448;-61
2023/12/02 01:27:31;;;;;;;18.87;13.37;;;2.70;91.50;;;;;;5075886;28;20841;-61
2023/12/02 01:29:58;;;;;;;17.83;13.40;;;2.70;91.30;;;;;;5075297;28;20552;-61
2023/12/02 01:32:25;;;;;;;22.50;13.80;;;2.60;91.50;;;;;;5075164;28;20445;-61
2023/12/02 01:34:51;;;;;;;20.37;14.53;;;2.60;91.60;;;;;;5075982;28;20444;-61
2023/12/02 01:37:18;;;;;;;17.03;13.67;;;2.60;91.70;;;;;;5075915;28;20451;-61
2023/12/02 01:39:46;;;;;;;18.53;14.60;;;2.60;91.70;;;;;;5076764;28;21032;-61
2023/12/02 01:42:13;;;;;;;21.80;13.90;;;2.60;91.80;;;;;;5077778;28;20440;-61
2023/12/02 01:44:40;;;;;;;21.73;15.33;;;2.60;91.60;;;;;;5078762;28;20455;-61
2023/12/02 01:47:07;;;;;;;22.30;15.80;;;2.60;91.60;;;;;;5078517;28;20455;-61
2023/12/02 01:49:35;;;;;;;20.47;14.40;;;2.60;91.50;;;;;;5074673;28;20459;-61
2023/12/02 01:52:02;;;;;;;18.97;13.67;;;2.60;91.40;;;;;;5074567;28;20439;-61
2023/12/02 01:54:29;;;;;;;18.67;15.07;;;2.70;91.50;;;;;;5074495;28;20448;-61
2023/12/02 01:56:57;;;;;;;20.57;13.63;;;2.70;91.60;;;;;;5074215;28;20465;-62
2023/12/02 01:59:24;;;;;;;18.90;13.70;;;2.60;91.40;;;;;;5074374;28;20905;-61
2023/12/02 02:01:50;;;;;;;19.13;14.37;;;2.70;91.40;;;;;;5074670;28;20448;-61
2023/12/02 02:04:18;;;;;;;22.53;15.37;;;2.60;91.20;;;;;;5074460;28;20449;-61
2023/12/02 02:06:45;;;;;;;24.13;15.67;;;2.60;91.10;;;;;;5074113;28;20444;-61
2023/12/02 02:09:12;;;;;;;21.33;14.03;;;2.70;91.00;;;;;;5073889;28;20468;-61
2023/12/02 02:11:38;;;;;;;21.50;15.17;;;2.70;91.10;;;;;;5074107;28;20472;-61
2023/12/02 02:14:07;;;;;;;22.27;16.17;;;2.70;91.20;;;;;;5073656;28;20452;-61
2023/12/02 02:16:33;;;;;;;27.57;17.33;;;2.70;91.30;;;;;;5073843;28;20831;-61
2023/12/02 02:19:00;;;;;;;30.27;20.63;;;2.70;91.30;;;;;;5073666;28;20856;-61
2023/12/02 02:21:28;;;;;;;33.93;22.43;;;2.70;91.20;;;;;;5073679;28;20456;-61
2023/12/02 02:23:55;;;;;;;30.47;20.30;;;2.60;91.10;;;;;;5073654;28;20493;-61
2023/12/02 02:26:21;;;;;;;29.13;20.60;;;2.70;91.30;;;;;;5073677;28;20436;-61
2023/12/02 02:28:48;;;;;;;28.90;18.90;;;2.60;91.10;;;;;;5073710;28;20440;-61
2023/12/02 02:31:15;;;;;;;24.40;18.73;;;2.60;91.20;;;;;;5073594;28;20538;-61
2023/12/02 02:33:41;;;;;;;27.57;18.63;;;2.60;91.30;;;;;;5073736;28;20452;-61
2023/12/02 02:36:09;;;;;;;27.43;19.10;;;2.60;91.20;;;;;;5073847;28;20456;-61
2023/12/02 02:38:37;;;;;;;26.53;17.20;;;2.60;91.00;;;;;;5073961;28;20456;-61
2023/12/02 02:41:04;;;;;;;21.97;16.60;;;2.60;90.90;;;;;;5074738;28;20491;-61
2023/12/02 02:43:31;;;;;;;25.83;16.50;;;2.60;90.90;;;;;;5074055;28;20472;-61
2023/12/02 02:45:57;;;;;;;24.80;15.57;;;2.60;90.70;;;;;;5073347;28;21015;-61
2023/12/02 02:48:24;;;;;;;20.07;14.20;;;2.60;90.60;;;;;;5073889;28;20444;-61
2023/12/02 02:50:51;;;;;;;19.63;13.70;;;2.60;91.00;;;;;;5073338;28;20457;-61
2023/12/02 02:53:17;;;;;;;18.30;13.30;;;2.60;90.60;;;;;;5073351;28;20468;-61
2023/12/02 02:55:46;;;;;;;17.87;13.27;;;2.60;90.50;;;;;;5073369;28;20441;-61
2023/12/02 02:58:13;;;;;;;18.07;13.10;;;2.60;90.40;;;;;;5072967;28;20934;-61
2023/12/02 03:00:40;;;;;;;19.77;13.40;;;2.60;90.30;;;;;;5057153;28;20489;-61
2023/12/02 03:03:06;;;;;;;17.33;12.67;;;2.60;90.30;;;;;;5053083;28;20593;-61
2023/12/02 03:05:33;;;;;;;15.40;12.87;;;2.60;90.40;;;;;;5052843;28;20928;-61
2023/12/02 03:07:59;;;;;;;17.77;12.93;;;2.60;90.30;;;;;;5052907;28;20503;-61
2023/12/02 03:10:26;;;;;;;17.97;13.37;;;2.60;90.30;;;;;;5053313;28;20453;-61
2023/12/02 03:12:54;;;;;;;18.23;13.87;;;2.60;90.50;;;;;;5053062;28;20446;-61
2023/12/02 03:15:21;;;;;;;19.67;14.77;;;2.60;90.70;;;;;;5052963;28;20462;-61
2023/12/02 03:17:47;;;;;;;20.20;14.77;;;2.60;90.80;;;;;;5053139;28;20448;-61
2023/12/02 03:20:15;;;;;;;20.30;15.10;;;2.60;90.90;;;;;;5053195;28;20836;-61
2023/12/02 03:22:42;;;;;;;19.83;14.90;;;2.60;90.70;;;;;;5052918;28;20445;-62
2023/12/02 03:25:09;;;;;;;21.57;16.13;;;2.60;90.80;;;;;;5053027;28;20448;-61
2023/12/02 03:27:35;;;;;;;23.40;16.23;;;2.60;90.90;;;;;;5052716;28;21054;-62
2023/12/02 03:30:05;;;;;;;25.10;17.10;;;2.60;90.90;;;;;;5052881;28;20465;-61
2023/12/02 03:32:32;;;;;;;21.77;15.00;;;2.60;91.10;;;;;;5052910;28;20445;-61
2023/12/02 03:34:58;;;;;;;23.20;15.33;;;2.70;91.10;;;;;;5054444;28;20469;-61
2023/12/02 03:37:25;;;;;;;22.93;14.97;;;2.60;91.20;;;;;;5056772;28;20445;-61
2023/12/02 03:39:52;;;;;;;22.43;14.30;;;2.60;91.20;;;;;;5056406;28;20830;-61
2023/12/02 03:42:18;;;;;;;20.97;14.87;;;2.60;91.20;;;;;;5056782;28;20788;-61
2023/12/02 03:44:45;;;;;;;19.63;13.90;;;2.60;91.30;;;;;;5056342;28;20936;-61
2023/12/02 03:47:13;;;;;;;21.60;15.60;;;2.60;91.60;;;;;;5056323;28;20822;-61
2023/12/02 03:49:40;;;;;;;22.50;15.00;;;2.60;91.40;;;;;;5056496;28;20831;-61
2023/12/02 03:52:06;;;;;;;18.50;13.90;;;2.60;91.10;;;;;;5056238;28;20986;-61
2023/12/02 03:54:33;;;;;;;19.80;14.53;;;2.60;90.90;;;;;;5056040;28;20849;-61
2023/12/02 03:57:00;;;;;;;18.57;14.07;;;2.60;90.90;;;;;;5056483;28;20441;-61
2023/12/02 03:59:26;;;;;;;19.10;13.43;;;2.60;90.90;;;;;;5056262;28;20465;-61
2023/12/02 04:01:53;;;;;;;19.23;13.10;;;2.60;91.00;;;;;;5056392;28;20441;-61
2023/12/02 04:04:21;;;;;;;19.30;13.87;;;2.60;91.10;;;;;;5056415;28;20448;-61
2023/12/02 04:06:48;;;;;;;24.70;13.63;;;2.70;91.20;;;;;;5056098;28;20445;-61
2023/12/02 04:09:16;;;;;;;19.63;12.80;;;2.70;91.20;;;;;;5056160;28;20460;-61
2023/12/02 04:11:45;;;;;;;17.10;11.83;;;2.60;91.20;;;;;;5056372;28;20445;-61
2023/12/02 04:14:12;;;;;;;15.90;11.60;;;2.70;91.20;;;;;;5055762;28;20457;-61
2023/12/02 04:16:40;;;;;;;16.17;11.50;;;2.60;91.20;;;;;;5055765;28;20970;-61
2023/12/02 04:19:07;;;;;;;15.70;11.77;;;2.60;91.00;;;;;;5055986;28;20495;-61
2023/12/02 04:21:36;;;;;;;14.10;11.80;;;2.60;91.00;;;;;;5055919;28;20509;-61
2023/12/02 04:24:03;;;;;;;12.20;10.07;;;2.60;91.00;;;;;;5056086;28;20480;-62
2023/12/02 04:26:29;;;;;;;12.90;10.60;;;2.60;90.90;;;;;;5055979;28;20444;-61
2023/12/02 04:28:56;;;;;;;12.03;9.40;;;2.60;90.90;;;;;;5055761;28;20959;-61
2023/12/02 04:31:23;;;;;;;13.73;10.37;;;2.60;90.90;;;;;;5055733;28;20944;-61
2023/12/02 04:33:49;;;;;;;15.70;11.50;;;2.60;91.00;;;;;;5056035;28;20446;-61
2023/12/02 04:36:16;;;;;;;11.93;9.20;;;2.60;91.00;;;;;;5055946;28;20560;-61
2023/12/02 04:38:44;;;;;;;12.13;10.27;;;2.60;90.90;;;;;;5055947;28;20438;-61
2023/12/02 04:41:11;;;;;;;12.73;9.97;;;2.60;90.70;;;;;;5055699;28;20482;-61
2023/12/02 04:43:38;;;;;;;15.17;10.20;;;2.50;90.60;;;;;;5055816;28;20479;-61
2023/12/02 04:46:06;;;;;;;11.73;8.83;;;2.50;90.70;;;;;;5055677;28;20449;-61
2023/12/02 04:48:34;;;;;;;10.70;9.27;;;2.50;90.80;;;;;;5055691;28;20471;-61
2023/12/02 04:51:00;;;;;;;12.00;9.40;;;2.60;90.90;;;;;;5055508;28;20460;-61
2023/12/02 04:53:27;;;;;;;12.10;9.40;;;2.60;91.00;;;;;;5055392;28;20449;-61
2023/12/02 04:55:55;;;;;;;13.83;10.63;;;2.50;90.90;;;;;;5055108;28;20442;-61
2023/12/02 04:58:23;;;;;;;12.13;9.70;;;2.50;90.70;;;;;;5055314;28;20456;-61
2023/12/02 05:00:50;;;;;;;12.80;10.37;;;2.50;90.60;;;;;;5055778;28;20486;-61
2023/12/02 05:03:17;;;;;;;13.10;10.80;;;2.50;90.60;;;;;;5055366;28;20449;-61
2023/12/02 05:05:44;;;;;;;12.50;10.17;;;2.50;90.60;;;;;;5055356;28;20528;-61
2023/12/02 05:08:11;;;;;;;11.20;9.17;;;2.50;90.60;;;;;;5055260;28;20437;-61
2023/12/02 05:10:38;;;;;;;10.00;8.50;;;2.50;90.60;;;;;;5055100;28;21002;-61
2023/12/02 05:13:06;;;;;;;10.90;9.47;;;2.50;90.70;;;;;;5055078;28;20449;-61
2023/12/02 05:15:33;;;;;;;10.17;8.60;;;2.50;90.60;;;;;;5054683;28;20464;-61
2023/12/02 05:18:00;;;;;;;12.63;8.90;;;2.40;90.60;;;;;;5055044;28;20441;-62
2023/12/02 05:20:26;;;;;;;10.93;8.30;;;2.40;90.50;;;;;;5054881;28;20489;-61
2023/12/02 05:22:53;;;;;;;13.00;9.60;;;2.40;90.50;;;;;;5054616;28;20919;-61
2023/12/02 05:25:19;;;;;;;11.73;9.83;;;2.40;90.40;;;;;;5054611;28;20955;-62
2023/12/02 05:27:46;;;;;;;10.63;8.80;;;2.40;90.40;;;;;;5054566;28;20442;-61
2023/12/02 05:30:14;;;;;;;12.63;10.30;;;2.40;90.40;;;;;;5054397;28;21002;-61
2023/12/02 05:32:41;;;;;;;11.13;9.60;;;2.40;90.40;;;;;;5054847;28;20848;-62
2023/12/02 05:35:10;;;;;;;9.80;7.70;;;2.40;90.40;;;;;;5054625;28;20445;-62
2023/12/02 05:37:37;;;;;;;12.33;8.30;;;2.40;90.20;;;;;;5054809;28;20538;-62
2023/12/02 05:40:04;;;;;;;13.10;8.90;;;2.40;90.10;;;;;;5054441;28;20520;-62
2023/12/02 05:42:31;;;;;;;11.07;9.50;;;2.40;90.00;;;;;;5054700;28;20449;-62
2023/12/02 05:44:58;;;;;;;14.33;10.40;;;2.40;90.20;;;;;;5054631;28;20494;-62
2023/12/02 05:47:26;;;;;;;12.03;10.43;;;2.40;90.10;;;;;;5054398;28;20448;-62
2023/12/02 05:49:53;;;;;;;10.50;8.80;;;2.40;90.00;;;;;;5054391;28;20462;-62
2023/12/02 05:52:19;;;;;;;11.00;8.97;;;2.40;90.00;;;;;;5054704;28;20445;-62
2023/12/02 05:54:46;;;;;;;12.50;8.53;;;2.40;90.00;;;;;;5054551;28;20456;-62
2023/12/02 05:57:13;;;;;;;13.30;9.90;;;2.40;90.10;;;;;;5054119;28;20449;-62
2023/12/02 05:59:39;;;;;;;11.07;9.30;;;2.40;90.10;;;;;;5060683;28;20491;-61
2023/12/02 06:02:06;;;;;;;10.40;8.40;;;2.40;90.00;;;;;;5074169;28;20480;-62
2023/12/02 06:04:34;;;;;;;10.20;8.93;;;2.40;89.70;;;;;;5074089;28;20453;-62
2023/12/02 06:07:01;;;;;;;10.80;8.43;;;2.40;89.80;;;;;;5074084;28;20445;-62
2023/12/02 06:09:27;;;;;;;12.80;8.77;;;2.30;90.20;;;;;;5073798;28;20974;-62
2023/12/02 06:11:54;;;;;;;10.83;8.93;;;2.30;90.20;;;;;;5073649;28;20816;-62
2023/12/02 06:14:21;;;;;;;11.90;9.67;;;2.30;90.10;;;;;;5073640;28;20453;-62
2023/12/02 06:16:47;;;;;;;12.80;9.70;;;2.30;89.80;;;;;;5074013;28;20451;-62
2023/12/02 06:19:14;;;;;;;10.80;9.00;;;2.30;89.40;;;;;;5073881;28;20441;-62
2023/12/02 06:21:42;;;;;;;16.30;11.37;;;2.30;90.00;;;;;;5073787;28;20510;-62
2023/12/02 06:24:09;;;;;;;11.20;9.97;;;2.30;89.80;;;;;;5073522;28;20444;-62
2023/12/02 06:26:35;;;;;;;10.83;9.50;;;2.30;89.40;;;;;;5074251;28;20445;-62
2023/12/02 06:29:02;;;;;;;13.40;9.53;;;2.30;89.30;;;;;;5073817;28;20452;-62
2023/12/02 06:31:29;;;;;;;12.90;10.93;;;2.30;89.00;;;;;;5073974;28;20445;-62
2023/12/02 06:33:55;;;;;;;13.10;10.60;;;2.30;88.70;;;;;;5073639;28;20440;-62
2023/12/02 06:36:22;;;;;;;15.73;11.60;;;2.30;89.00;;;;;;5073681;28;20440;-62
2023/12/02 06:38:50;;;;;;;12.83;10.90;;;2.30;89.70;;;;;;5073641;28;20456;-62
2023/12/02 06:41:17;;;;;;;12.40;9.37;;;2.30;90.00;;;;;;5073555;28;21001;-62
2023/12/02 06:43:43;;;;;;;14.20;10.80;;;2.30;90.00;;;;;;5073921;28;20437;-62
2023/12/02 06:46:20;;;;;;;14.00;11.17;;;2.30;90.00;;;;;;5073472;28;20451;-62
2023/12/02 06:48:47;;;;;;;14.00;10.43;;;2.30;90.10;;;;;;5074343;28;20755;-62
2023/12/02 06:51:14;;;;;;;13.50;10.70;;;2.30;90.20;;;;;;5073387;28;20796;-62
2023/12/02 06:53:40;;;;;;;17.33;11.40;;;2.30;90.30;;;;;;5073288;28;20939;-62
2023/12/02 06:56:17;;;;;;;12.23;10.40;;;2.30;90.20;;;;;;5073257;28;20480;-62
2023/12/02 06:58:43;;;;;;;10.90;9.57;;;2.30;90.30;;;;;;5073107;28;20915;-62
2023/12/02 07:01:10;;;;;;;10.90;9.47;;;2.30;90.40;;;;;;5073031;28;21009;-62
2023/12/02 07:03:38;;;;;;;16.17;10.67;;;2.40;90.50;;;;;;5073157;28;20949;-62
2023/12/02 07:06:05;;;;;;;15.93;11.33;;;2.30;90.40;;;;;;5073130;28;20966;-62
2023/12/02 07:08:32;;;;;;;13.43;10.83;;;2.30;90.40;;;;;;5073547;28;20445;-62
2023/12/02 07:10:58;;;;;;;12.67;9.87;;;2.40;90.50;;;;;;5076549;28;20483;-62
2023/12/02 07:13:26;;;;;;;13.60;10.33;;;2.40;90.50;;;;;;5077388;28;20451;-62
2023/12/02 07:15:53;;;;;;;12.67;9.93;;;2.30;90.50;;;;;;5077585;28;20425;-62
2023/12/02 07:18:19;;;;;;;13.07;10.53;;;2.40;90.60;;;;;;5077774;28;20451;-63
2023/12/02 07:20:46;;;;;;;13.00;10.30;;;2.40;90.70;;;;;;5077384;28;20488;-62
2023/12/02 07:23:13;;;;;;;11.00;8.67;;;2.40;90.80;;;;;;5077571;28;20444;-62
2023/12/02 07:25:39;;;;;;;12.97;10.17;;;2.40;91.00;;;;;;5077192;28;20942;-62
2023/12/02 07:28:06;;;;;;;13.83;9.60;;;2.40;90.90;;;;;;5077672;28;20931;-62
2023/12/02 07:30:35;;;;;;;14.87;10.50;;;2.40;90.90;;;;;;5077644;28;20974;-63
2023/12/02 07:33:02;;;;;;;13.93;10.47;;;2.40;90.70;;;;;;5079307;28;20509;-62
2023/12/02 07:35:28;;;;;;;13.00;11.17;;;2.40;90.60;;;;;;5079306;28;20440;-63
2023/12/02 07:37:55;;;;;;;20.70;12.67;;;2.40;90.50;;;;;;5078025;28;20449;-63
2023/12/02 07:40:22;;;;;;;17.10;11.70;;;2.40;90.50;;;;;;5078486;28;20460;-63
2023/12/02 07:42:48;;;;;;;14.03;11.97;;;2.50;90.40;;;;;;5077894;28;20467;-62
2023/12/02 07:45:15;;;;;;;17.47;12.93;;;2.50;90.40;;;;;;5077762;28;20449;-63
2023/12/02 07:47:43;;;;;;;19.27;12.07;;;2.50;90.40;;;;;;5077256;28;20444;-62
2023/12/02 07:50:10;;;;;;;20.30;13.70;;;2.50;90.50;;;;;;5078315;28;20465;-63
2023/12/02 07:52:37;;;;;;;15.00;12.60;;;2.50;90.60;;;;;;5078244;28;20440;-62
2023/12/02 07:55:04;;;;;;;26.33;13.40;;;2.50;90.60;;;;;;5078174;28;20448;-62
2023/12/02 07:57:31;;;;;;;18.50;12.60;;;2.50;90.50;;;;;;5077218;28;20447;-62
2023/12/02 07:59:58;;;;;;;18.70;12.73;;;2.50;90.40;;;;;;5077996;28;20463;-62
2023/12/02 08:02:24;;;;;;;19.10;14.23;;;2.50;90.40;;;;;;5077976;28;20864;-62
2023/12/02 08:04:52;;;;;;;16.07;12.43;;;2.60;90.40;;;;;;5079805;28;20451;-62
2023/12/02 08:07:19;;;;;;;14.80;10.80;;;2.60;90.40;;;;;;5078930;28;20448;-62
2023/12/02 08:09:46;;;;;;;15.70;12.13;;;2.50;90.10;;;;;;5079357;28;20472;-62
2023/12/02 08:12:13;;;;;;;16.13;11.87;;;2.50;90.20;;;;;;5080733;28;20440;-62
2023/12/02 08:14:39;;;;;;;17.20;12.47;;;2.50;90.30;;;;;;5076401;28;20452;-62
2023/12/02 08:17:06;;;;;;;16.80;11.57;;;2.50;90.20;;;;;;5076413;28;20548;-62
2023/12/02 08:19:33;;;;;;;16.23;11.47;;;2.60;90.20;;;;;;5075868;28;20468;-62
2023/12/02 08:22:01;;;;;;;18.10;11.90;;;2.60;90.20;;;;;;5075725;28;20484;-62
2023/12/02 08:24:32;;;;;;;14.53;11.30;;;2.60;90.20;;;;;;5076233;28;20437;-62
2023/12/02 08:26:58;;;;;;;15.47;12.30;;;2.60;90.30;;;;;;5076081;28;20434;-62
2023/12/02 08:29:25;;;;;;;16.67;12.63;;;2.70;90.30;;;;;;5075928;28;20464;-62
2023/12/02 08:31:52;;;;;;;14.30;11.67;;;2.70;90.10;;;;;;5076015;28;20437;-62
2023/12/02 08:34:19;;;;;;;16.40;12.60;;;2.70;90.00;;;;;;5075901;28;20965;-62
2023/12/02 08:36:45;;;;;;;15.83;12.13;;;2.70;89.90;;;;;;5075858;28;20440;-62
2023/12/02 08:39:14;;;;;;;16.80;12.40;;;2.70;89.90;;;;;;5075687;28;20441;-62
2023/12/02 08:41:41;;;;;;;14.60;12.80;;;2.80;90.00;;;;;;5075659;28;20546;-62
2023/12/02 08:44:07;;;;;;;16.93;12.30;;;2.80;90.10;;;;;;5075630;28;20494;-62
2023/12/02 08:46:34;;;;;;;15.60;11.73;;;2.80;89.60;;;;;;5075750;28;20919;-62
2023/12/02 08:49:01;;;;;;;14.73;11.60;;;2.80;88.60;;;;;;5075568;28;20446;-62
2023/12/02 08:51:28;;;;;;;16.00;12.67;;;2.80;87.80;;;;;;5075303;28;20464;-62
2023/12/02 08:54:00;;;;;;;19.10;13.60;;;2.80;87.80;;;;;;5075507;28;20445;-62
2023/12/02 08:56:29;;;;;;;19.10;14.40;;;2.80;88.40;;;;;;5075387;28;20436;-62
2023/12/02 08:58:56;;;;;;;15.93;11.73;;;2.90;89.00;;;;;;5073643;28;20808;-62
2023/12/02 09:01:23;;;;;;;16.03;12.53;;;2.90;88.00;;;;;;5055329;28;20496;-62
2023/12/02 09:03:50;;;;;;;16.87;12.30;;;2.90;87.50;;;;;;5055167;28;20452;-63
2023/12/02 09:06:17;;;;;;;15.90;11.30;;;3.00;87.80;;;;;;5055275;28;20437;-65
2023/12/02 09:08:44;;;;;;;24.00;13.23;;;3.00;91.10;;;;;;5055158;28;20477;-65
2023/12/02 09:11:11;;;;;;;36.10;15.17;;;3.20;92.10;;;;;;5055204;28;20466;-66
2023/12/02 09:13:43;;;;;;;17.23;13.93;;;3.20;91.80;;;;;;5055047;28;20453;-62
2023/12/02 09:16:12;;;;;;;20.30;13.17;;;3.20;91.40;;;;;;5055409;28;20476;-61
2023/12/02 09:18:40;;;;;;;17.23;13.83;;;3.20;91.60;;;;;;5054980;28;20798;-65
2023/12/02 09:21:41;;;;;;;15.50;12.50;;;3.30;92.10;;;;;;5054816;28;20550;-64
2023/12/02 09:24:34;;;;;;;17.77;12.97;;;3.40;91.50;;;;;;5054941;28;20441;-64
2023/12/02 09:27:05;;;;;;;16.87;11.77;;;3.30;91.00;;;;;;5054782;28;20437;-65
2023/12/02 09:29:36;;;;;;;14.83;11.57;;;3.40;90.00;;;;;;5054743;28;21007;-65
2023/12/02 09:32:09;;;;;;;16.70;12.80;;;3.40;88.80;;;;;;5054005;28;20423;-65
2023/12/02 09:34:57;;;;;;;17.20;12.47;;;3.50;88.30;;;;;;5054714;28;20461;-65
2023/12/02 09:37:53;;;;;;;16.07;12.27;;;3.50;87.80;;;;;;5054505;28;20474;-65
2023/12/02 09:40:35;;;;;;;20.90;13.67;;;3.50;86.70;;;;;;5055067;28;20450;-65
2023/12/02 09:43:15;;;;;;;15.57;12.57;;;3.50;86.40;;;;;;5054577;28;20484;-65
2023/12/02 09:45:51;;;;;;;16.03;12.20;;;3.50;86.40;;;;;;5054182;28;20429;-65
2023/12/02 09:48:23;;;;;;;17.07;12.97;;;3.60;86.70;;;;;;5054716;28;20437;-65
2023/12/02 09:51:01;;;;;;;20.93;12.73;;;3.60;86.10;;;;;;5054521;28;20469;-67
2023/12/02 09:53:37;;;;;;;19.53;12.53;;;3.60;85.30;;;;;;5054504;28;20454;-66
2023/12/02 09:56:12;;;;;;;18.07;13.40;;;3.60;84.60;;;;;;5053849;28;20496;-67
2023/12/02 09:58:44;;;;;;;16.50;11.67;;;3.60;84.70;;;;;;5054099;28;20807;-67
2023/12/02 10:01:21;;;;;;;16.97;12.77;;;3.60;84.60;;;;;;5054194;28;20553;-67
2023/12/02 10:04:01;;;;;;;17.00;13.07;;;3.60;84.90;;;;;;5054083;28;20927;-67
2023/12/02 10:06:42;;;;;;;17.20;12.80;;;3.50;84.10;;;;;;5053853;28;20892;-67
2023/12/02 10:09:23;;;;;;;17.37;12.73;;;3.40;83.80;;;;;;5053878;28;20916;-67
2023/12/02 10:12:01;;;;;;;17.17;12.40;;;3.30;84.30;;;;;;5054188;28;20422;-67
2023/12/02 10:14:29;;;;;;;20.27;13.20;;;3.30;85.00;;;;;;5053690;28;20456;-67
2023/12/02 10:16:58;;;;;;;20.03;12.63;;;3.30;84.70;;;;;;5053867;28;20857;-67
2023/12/02 10:19:36;;;;;;;18.53;13.40;;;3.40;85.00;;;;;;5053876;28;20553;-67
2023/12/02 10:22:06;;;;;;;16.50;12.07;;;3.40;85.20;;;;;;5053638;28;21021;-67
2023/12/02 10:24:46;;;;;;;17.40;12.73;;;3.50;85.50;;;;;;5054136;28;20450;-67
2023/12/02 10:27:17;;;;;;;19.30;13.37;;;3.50;85.60;;;;;;5054241;28;20421;-66
2023/12/02 10:29:53;;;;;;;15.70;11.60;;;3.60;85.20;;;;;;5053899;28;20465;-66
2023/12/02 10:32:33;;;;;;;19.93;13.30;;;3.60;84.00;;;;;;5053996;28;20539;-66
2023/12/02 10:35:07;;;;;;;18.23;12.57;;;3.60;82.80;;;;;;5053886;28;20418;-66
2023/12/02 10:37:38;;;;;;;20.53;13.93;;;3.50;83.60;;;;;;5054037;28;20439;-66
2023/12/02 10:40:08;;;;;;;18.80;13.20;;;3.60;83.70;;;;;;5053436;28;20541;-66
2023/12/02 10:42:46;;;;;;;19.23;13.37;;;3.70;83.90;;;;;;5053660;28;20469;-65
2023/12/02 10:45:14;;;;;;;16.70;12.83;;;3.70;83.90;;;;;;5053611;28;20432;-65
2023/12/02 10:47:44;;;;;;;17.77;12.87;;;3.80;83.80;;;;;;5053527;28;20446;-65
2023/12/02 10:50:12;;;;;;;18.47;13.50;;;4.00;82.10;;;;;;5054359;28;20473;-64
2023/12/02 10:52:41;;;;;;;18.23;13.50;;;4.00;81.40;;;;;;5054413;28;20442;-64
2023/12/02 10:55:10;;;;;;;18.70;13.70;;;4.10;81.40;;;;;;5054939;28;20828;-64
2023/12/02 10:57:37;;;;;;;17.57;13.30;;;4.10;80.00;;;;;;5053834;28;20491;-64
2023/12/02 11:00:07;;;;;;;14.70;11.73;;;4.10;78.20;;;;;;5053609;28;20470;-64
2023/12/02 11:02:39;;;;;;;16.83;13.10;;;4.10;79.40;;;;;;5053324;28;20485;-63
2023/12/02 11:05:20;;;;;;;15.77;12.80;;;4.10;79.00;;;;;;5053475;28;20430;-63
2023/12/02 11:07:50;;;;;;;16.63;12.50;;;4.30;79.60;;;;;;5053078;28;20999;-63
2023/12/02 11:10:19;;;;;;;15.23;12.10;;;4.60;79.30;;;;;;5053286;28;20461;-63
2023/12/02 11:12:52;;;;;;;18.60;12.40;;;5.00;78.00;;;;;;5053025;28;20453;-63
2023/12/02 11:15:22;;;;;;;16.20;11.23;;;5.30;74.00;;;;;;5053236;28;20481;-63
2023/12/02 11:18:00;;;;;;;16.03;12.17;;;5.60;73.10;;;;;;5053104;28;20430;-63
2023/12/02 11:20:37;;;;;;;15.40;12.53;;;5.80;70.90;;;;;;5052758;28;20457;-63
2023/12/02 11:23:22;;;;;;;14.33;11.67;;;6.10;70.80;;;;;;5052862;28;21005;-63
2023/12/02 11:26:12;;;;;;;14.80;11.40;;;6.50;70.10;;;;;;5052803;28;20884;-64
2023/12/02 11:28:48;;;;;;;14.17;11.27;;;6.80;68.10;;;;;;5053395;28;20461;-63
2023/12/02 11:31:29;;;;;;;14.57;10.83;;;7.00;65.20;;;;;;5053042;28;20480;-64
2023/12/02 11:34:20;;;;;;;15.57;13.80;;;7.10;64.20;;;;;;5053391;28;20418;-64
2023/12/02 11:36:57;;;;;;;16.20;11.97;;;7.10;63.90;;;;;;5052990;28;20432;-64
2023/12/02 11:39:37;;;;;;;13.87;11.40;;;6.90;61.70;;;;;;5052746;28;20476;-63
2023/12/02 11:42:12;;;;;;;13.30;11.53;;;6.80;62.50;;;;;;5052637;28;20991;-63
2023/12/02 11:44:55;;;;;;;14.20;11.53;;;6.80;62.20;;;;;;5053237;28;20806;-63
2023/12/02 11:47:32;;;;;;;15.20;11.90;;;6.80;61.60;;;;;;5053010;28;20430;-63
2023/12/02 11:50:12;;;;;;;16.23;11.50;;;6.90;62.60;;;;;;5052934;28;20864;-63
2023/12/02 11:52:53;;;;;;;14.67;12.23;;;7.10;61.20;;;;;;5053687;28;20461;-63
2023/12/02 11:55:29;;;;;;;16.00;12.10;;;7.20;61.30;;;;;;5053820;28;20426;-63
2023/12/02 11:58:04;;;;;;;14.80;11.63;;;7.30;59.90;;;;;;5056530;28;20429;-63
2023/12/02 12:00:47;;;;;;;14.70;12.13;;;7.50;59.80;;;;;;5056463;28;20488;-63
2023/12/02 12:03:31;;;;;;;14.77;11.73;;;7.70;59.90;;;;;;5056602;28;20554;-63
2023/12/02 12:06:12;;;;;;;12.83;11.53;;;8.00;59.30;;;;;;5056043;28;20436;-63
2023/12/02 12:08:53;;;;;;;13.00;11.10;;;8.10;57.50;;;;;;5056550;28;20445;-63
2023/12/02 12:11:21;;;;;;;12.80;10.50;;;7.80;56.40;;;;;;5056492;28;20552;-63
2023/12/02 12:13:49;;;;;;;12.57;11.27;;;7.80;57.30;;;;;;5056222;28;20954;-63
2023/12/02 12:16:16;;;;;;;13.50;10.70;;;7.70;57.40;;;;;;5056169;28;20445;-63
2023/12/02 12:18:43;;;;;;;14.40;10.80;;;7.70;57.20;;;;;;5056038;28;20441;-63
2023/12/02 12:21:10;;;;;;;16.73;11.90;;;7.80;57.30;;;;;;5056132;28;20492;-63
2023/12/02 12:23:36;;;;;;;13.33;11.07;;;7.80;56.70;;;;;;5056070;28;20555;-63
2023/12/02 12:26:06;;;;;;;11.70;10.10;;;7.90;57.00;;;;;;5055984;28;20957;-63
2023/12/02 12:28:32;;;;;;;11.23;9.87;;;7.70;55.90;;;;;;5055817;28;20963;-64
2023/12/02 12:30:59;;;;;;;16.43;12.53;;;7.70;56.30;;;;;;5055844;28;20473;-64
2023/12/02 12:33:26;;;;;;;14.13;11.07;;;7.80;56.50;;;;;;5056022;28;20469;-64
2023/12/02 12:35:52;;;;;;;15.43;10.53;;;7.80;55.70;;;;;;5055365;28;20825;-63
2023/12/02 12:38:22;;;;;;;12.90;10.30;;;7.90;56.30;;;;;;5055773;28;20806;-64
2023/12/02 12:40:51;;;;;;;14.07;11.40;;;7.90;56.10;;;;;;5055798;28;20497;-64
2023/12/02 12:43:19;;;;;;;13.03;11.23;;;7.80;55.60;;;;;;5055643;28;20583;-64
2023/12/02 12:45:50;;;;;;;13.57;11.33;;;7.70;56.10;;;;;;5055785;28;20437;-64
2023/12/02 12:48:24;;;;;;;16.67;12.80;;;7.70;56.00;;;;;;5055848;28;20434;-64